createdAt,value
2023-04-03T00:00:26.732Z,1520.7
2023-04-03T00:02:10.580Z,1519.1
2023-04-03T00:03:54.213Z,1512.5
2023-04-03T00:05:38.027Z,1507.2
2023-04-03T00:07:21.776Z,1497.4
2023-04-03T00:09:05.322Z,1482.8
2023-04-03T00:10:49.051Z,1449.7
2023-04-03T00:12:32.888Z,1365
2023-04-03T00:14:16.545Z,1353.5
2023-04-03T00:16:00.128Z,1361.2
2023-04-03T00:17:43.948Z,1364.4
2023-04-03T00:19:27.647Z,1369.1
2023-04-03T00:21:11.328Z,1370.7
2023-04-03T00:22:55.074Z,1373.4
2023-04-03T00:24:38.711Z,1378.7
2023-04-03T00:26:22.475Z,1379.1
2023-04-03T00:28:06.170Z,1379.1
2023-04-03T00:29:49.808Z,1382.6
2023-04-03T00:31:33.568Z,1386.9
2023-04-03T00:33:17.091Z,1386
2023-04-03T00:35:00.924Z,1389.9
2023-04-03T00:36:44.539Z,1388
2023-04-03T00:38:28.361Z,1377.5
2023-04-03T00:40:12.041Z,1372.4
2023-04-03T00:41:55.642Z,1371.7
2023-04-03T00:43:39.421Z,1374.5
2023-04-03T00:45:23.003Z,1382.8
2023-04-03T00:47:06.875Z,1382.9
2023-04-03T00:48:50.592Z,1384.2
2023-04-03T00:50:34.198Z,1389.6
2023-04-03T00:52:17.977Z,1387.4
2023-04-03T00:54:01.655Z,1387.9
2023-04-03T00:55:45.392Z,1390.4
2023-04-03T00:57:29.045Z,1391.6
2023-04-03T00:59:12.682Z,1389.1
2023-04-03T01:00:56.518Z,1389.3
2023-04-03T01:02:40.155Z,1387.8
2023-04-03T01:04:23.731Z,1386.7
2023-04-03T01:06:07.483Z,1384.9
2023-04-03T01:07:51.276Z,1385.9
2023-04-03T01:09:34.911Z,1384.5
2023-04-03T01:11:18.548Z,1384.1
2023-04-03T01:13:02.249Z,1384.4
2023-04-03T01:14:46.151Z,1386.1
2023-04-03T01:16:29.700Z,1388.5
2023-04-03T01:18:13.444Z,1391.9
2023-04-03T01:19:57.055Z,1393.9
2023-04-03T01:21:40.918Z,1396.1
2023-04-03T01:23:24.628Z,1392.8
2023-04-03T01:25:08.297Z,1391.4
2023-04-03T01:26:51.988Z,1388.4
2023-04-03T01:28:35.734Z,1389.2
2023-04-03T01:30:19.276Z,1392
2023-04-03T01:32:03.130Z,1393.8
2023-04-03T01:33:46.698Z,1396.7
2023-04-03T01:35:30.476Z,1394.7
2023-04-03T01:37:14.193Z,1393.4
2023-04-03T01:38:57.965Z,1394
2023-04-03T01:40:41.581Z,1393.1
2023-04-03T01:42:25.261Z,1391.8
2023-04-03T01:44:08.989Z,1391.2
2023-04-03T01:45:52.740Z,1391.7
2023-04-03T01:47:36.418Z,1394.3
2023-04-03T01:49:20.011Z,1392
2023-04-03T01:51:03.765Z,1399.4
2023-04-03T01:52:47.445Z,1403
2023-04-03T01:54:31.237Z,1403.3
2023-04-03T01:56:14.977Z,1403.3
2023-04-03T01:57:58.652Z,1404.9
2023-04-03T01:59:42.399Z,1401.7
2023-04-03T02:01:25.987Z,1402.6
2023-04-03T02:03:09.792Z,1401.4
2023-04-03T02:04:53.494Z,1402.6
2023-04-03T02:06:37.133Z,1403.9
2023-04-03T02:08:20.847Z,1404.1
2023-04-03T02:10:04.523Z,1405.8
2023-04-03T02:11:48.289Z,1409.6
2023-04-03T02:13:31.984Z,1410.4
2023-04-03T02:15:15.543Z,1413.8
2023-04-03T02:16:59.333Z,1413.2
2023-04-03T02:18:43.169Z,1410.9
2023-04-03T02:20:26.733Z,1417.7
2023-04-03T02:22:10.529Z,1413
2023-04-03T02:23:54.254Z,1410.6
2023-04-03T02:25:37.844Z,1416.3
2023-04-03T02:27:21.580Z,1412.2
2023-04-03T02:29:05.167Z,1413.7
2023-04-03T02:30:49.011Z,1415.3
2023-04-03T02:32:32.626Z,1416.6
2023-04-03T02:34:16.388Z,1417.2
2023-04-03T02:35:59.964Z,1418.5
2023-04-03T02:37:43.774Z,1421
2023-04-03T02:39:27.565Z,1420.8
2023-04-03T02:41:11.107Z,1418.7
2023-04-03T02:42:54.801Z,1418.3
2023-04-03T02:44:38.475Z,1417.9
2023-04-03T02:46:22.330Z,1418.7
2023-04-03T02:48:06.071Z,1422
2023-04-03T02:49:49.738Z,1422.6
2023-04-03T02:51:33.326Z,1422.8
2023-04-03T02:53:17.094Z,1425.1
2023-04-03T02:55:00.769Z,1430
2023-04-03T02:56:44.414Z,1425.6
2023-04-03T02:58:28.237Z,1423.5
2023-04-03T03:00:11.904Z,1422.3
2023-04-03T03:01:55.647Z,1421.1
2023-04-03T03:03:39.332Z,1425.1
2023-04-03T03:05:22.945Z,1429
2023-04-03T03:07:06.774Z,1430.3
2023-04-03T03:08:50.464Z,1433
2023-04-03T03:10:34.234Z,1434.1
2023-04-03T03:12:17.707Z,1430.3
2023-04-03T03:14:01.548Z,1435.3
2023-04-03T03:15:45.122Z,1440.4
2023-04-03T03:17:28.932Z,1435.6
2023-04-03T03:19:12.530Z,1434.6
2023-04-03T03:22:39.995Z,1435.7
2023-04-03T03:24:23.789Z,1434.5
2023-04-03T03:26:07.348Z,1432.1
2023-04-03T03:29:34.754Z,1441.8
2023-04-03T03:31:18.669Z,1447.1
2023-04-03T03:33:02.275Z,1446.3
2023-04-03T03:34:46.083Z,1450
2023-04-03T03:36:29.635Z,1450.7
2023-04-03T03:38:13.319Z,1449.2
2023-04-03T03:39:57.085Z,1448.1
2023-04-03T03:41:40.786Z,1448
2023-04-03T03:43:24.473Z,1450.1
2023-04-03T03:46:51.911Z,1455.1
2023-04-03T03:48:35.481Z,1454.7
2023-04-03T03:50:19.278Z,1455.2
2023-04-03T03:52:02.903Z,1455.8
2023-04-03T03:53:46.688Z,1458
2023-04-03T03:55:30.461Z,1458.5
2023-04-03T03:57:14.011Z,1457.5
2023-04-03T03:58:57.852Z,1455
2023-04-03T04:00:41.510Z,1450.9
2023-04-03T04:02:25.303Z,1460.1
2023-04-03T04:04:08.814Z,1467.5
2023-04-03T04:05:52.596Z,1465.3
2023-04-03T04:07:36.320Z,1464.9
2023-04-03T04:09:20.049Z,1466.7
2023-04-03T04:12:47.391Z,1469.5
2023-04-03T04:14:31.100Z,1471.7
2023-04-03T04:16:14.866Z,1472.9
2023-04-03T04:17:58.592Z,1471.8
2023-04-03T04:19:42.192Z,1468.3
2023-04-03T04:21:25.988Z,1468.1
2023-04-03T04:23:09.660Z,1469.9
2023-04-03T04:24:53.437Z,1473.3
2023-04-03T04:26:37.039Z,1471.7
2023-04-03T04:28:20.701Z,1474
2023-04-03T04:30:04.401Z,1474.9
2023-04-03T04:31:48.203Z,1475.5
2023-04-03T04:33:31.770Z,1477
2023-04-03T04:35:15.455Z,1481.8
2023-04-03T04:36:59.169Z,1483
2023-04-03T04:38:42.843Z,1482.3
2023-04-03T04:40:26.555Z,1487.1
2023-04-03T04:42:10.433Z,1487.8
2023-04-03T04:43:53.957Z,1500.9
2023-04-03T04:45:37.840Z,1503.8
2023-04-03T04:47:21.387Z,1503.2
2023-04-03T04:49:05.220Z,1499.7
2023-04-03T04:50:48.911Z,1505.9
2023-04-03T04:52:32.584Z,1507.4
2023-04-03T04:55:59.871Z,1503
2023-04-03T04:57:43.765Z,1505
2023-04-03T04:59:27.391Z,1503.4
2023-04-03T05:01:10.986Z,1500.2
2023-04-03T05:02:54.685Z,1503.9
2023-04-03T05:04:38.411Z,1508.6
2023-04-03T05:06:22.245Z,1510.6
2023-04-03T05:08:05.954Z,1516.3
2023-04-03T05:09:49.501Z,1531.6
2023-04-03T05:11:33.517Z,1554
2023-04-03T05:13:17.063Z,1558.6
2023-04-03T05:15:00.722Z,1561.2
2023-04-03T05:16:44.299Z,1577.4
2023-04-03T05:18:28.150Z,1603.2
2023-04-03T05:20:11.730Z,1605.8
2023-04-03T05:21:55.562Z,1589.3
2023-04-03T05:23:39.286Z,1604.1
2023-04-03T05:25:22.972Z,1673.7
2023-04-03T05:27:06.652Z,1678.9
2023-04-03T05:28:50.282Z,1659.4
2023-04-03T05:30:34.058Z,1648.5
2023-04-03T05:32:17.749Z,1647.2
2023-04-03T05:34:01.369Z,1709.8
2023-04-03T05:35:45.044Z,1719
2023-04-03T05:37:28.937Z,1709.8
2023-04-03T05:39:12.471Z,1684.9
2023-04-03T05:40:56.141Z,1661
2023-04-03T05:42:39.948Z,1644.5
2023-04-03T05:44:23.711Z,1645.6
2023-04-03T05:46:07.356Z,1647.6
2023-04-03T05:47:51.120Z,1648.5
2023-04-03T05:49:34.763Z,1653.4
2023-04-03T05:51:18.381Z,1665.4
2023-04-03T05:53:02.174Z,1665.6
2023-04-03T05:54:45.780Z,1683.4
2023-04-03T05:56:29.493Z,1701.2
2023-04-03T05:58:13.189Z,1706.6
2023-04-03T05:59:56.849Z,1720.7
2023-04-03T06:01:40.673Z,1729.9
2023-04-03T06:03:24.340Z,1729.2
2023-04-03T06:05:08.077Z,1740.1
2023-04-03T06:06:51.743Z,1739
2023-04-03T06:08:35.421Z,1741.6
2023-04-03T06:10:19.125Z,1745.1
2023-04-03T06:12:02.878Z,1749.2
2023-04-03T06:13:46.483Z,1770.7
2023-04-03T06:15:30.278Z,1781.4
2023-04-03T06:17:14.040Z,1798.4
2023-04-03T06:18:57.628Z,1799
2023-04-03T06:20:41.460Z,1799.5
2023-04-03T06:22:25.140Z,1801.7
2023-04-03T06:24:08.842Z,1796.9
2023-04-03T06:25:52.484Z,1787.7
2023-04-03T06:27:36.121Z,1772.3
2023-04-03T06:29:19.837Z,1796.7
2023-04-03T06:31:03.513Z,1825.8
2023-04-03T06:32:47.212Z,1802
2023-04-03T06:34:31.016Z,1796
2023-04-03T06:36:14.693Z,1803.1
2023-04-03T06:37:58.389Z,1806.7
2023-04-03T06:39:42.033Z,1808.5
2023-04-03T06:41:25.807Z,1810.2
2023-04-03T06:43:09.537Z,1810.4
2023-04-03T06:44:53.192Z,1806.5
2023-04-03T06:46:36.818Z,1803.5
2023-04-03T06:48:20.666Z,1803.6
2023-04-03T06:50:04.380Z,1804.4
2023-04-03T06:51:47.921Z,1803.7
2023-04-03T06:53:31.724Z,1800.9
2023-04-03T06:55:15.366Z,1798.5
2023-04-03T06:56:59.144Z,1797.3
2023-04-03T06:58:42.842Z,1799.7
2023-04-03T07:00:26.449Z,1797.8
2023-04-03T07:02:10.174Z,1798.8
2023-04-03T07:03:53.981Z,1798.2
2023-04-03T07:05:37.645Z,1797
2023-04-03T07:07:21.469Z,1800.5
2023-04-03T07:09:05.034Z,1798.1
2023-04-03T07:10:48.892Z,1796.3
2023-04-03T07:12:32.489Z,1796.8
2023-04-03T07:14:16.132Z,1796.7
2023-04-03T07:15:59.860Z,1797.8
2023-04-03T07:17:43.578Z,1800.5
2023-04-03T07:19:27.427Z,1803.3
2023-04-03T07:21:11.029Z,1804.7
2023-04-03T07:22:54.710Z,1805.2
2023-04-03T07:24:38.456Z,1802.7
2023-04-03T07:26:22.206Z,1803.5
2023-04-03T07:28:05.882Z,1802
2023-04-03T07:29:49.557Z,1799.8
2023-04-03T07:31:33.259Z,1801.4
2023-04-03T07:33:16.974Z,1797
2023-04-03T07:35:00.669Z,1795.8
2023-04-03T07:36:44.350Z,1793.9
2023-04-03T07:38:27.904Z,1793.9
2023-04-03T07:40:11.664Z,1792.8
2023-04-03T07:41:55.317Z,1789.5
2023-04-03T07:43:39.213Z,1794.5
2023-04-03T07:45:22.887Z,1818.2
2023-04-03T07:47:06.599Z,1837.2
2023-04-03T07:48:50.330Z,1819.5
2023-04-03T07:50:33.992Z,1801.4
2023-04-03T07:52:17.698Z,1795.5
2023-04-03T07:54:01.410Z,1794.9
2023-04-03T07:55:45.046Z,1801.7
2023-04-03T07:57:28.634Z,1802
2023-04-03T07:59:12.357Z,1800.6
2023-04-03T08:00:56.259Z,1801.8
2023-04-03T08:02:39.887Z,1802.2
2023-04-03T08:04:23.658Z,1802.8
2023-04-03T08:06:07.279Z,1801.8
2023-04-03T08:07:51.021Z,1800
2023-04-03T08:09:34.746Z,1796.6
2023-04-03T08:11:18.434Z,1795.3
2023-04-03T08:13:02.102Z,1802.1
2023-04-03T08:14:45.828Z,1800.7
2023-04-03T08:16:29.504Z,1800.1
2023-04-03T08:18:13.245Z,1800.9
2023-04-03T08:19:56.926Z,1796.9
2023-04-03T08:21:40.719Z,1800.6
2023-04-03T08:23:24.410Z,1796.3
2023-04-03T08:25:07.986Z,1797.4
2023-04-03T08:26:51.740Z,1801.3
2023-04-03T08:28:35.408Z,1801
2023-04-03T08:30:19.045Z,1825.3
2023-04-03T08:32:02.752Z,1861.4
2023-04-03T08:33:46.554Z,1827.8
2023-04-03T08:35:30.147Z,1797.3
2023-04-03T08:37:13.790Z,1788.6
2023-04-03T08:38:57.698Z,1793.6
2023-04-03T08:40:41.198Z,1796.1
2023-04-03T08:42:25.081Z,1799.3
2023-04-03T08:44:08.759Z,1802.9
2023-04-03T08:45:52.541Z,1806.1
2023-04-03T08:47:36.144Z,1805.5
2023-04-03T08:49:19.705Z,1808.1
2023-04-03T08:51:03.506Z,1809.7
2023-04-03T08:52:47.212Z,1807.4
2023-04-03T08:54:30.975Z,1802.9
2023-04-03T08:56:14.688Z,1802.2
2023-04-03T08:57:58.359Z,1802.8
2023-04-03T08:59:42.114Z,1799.8
2023-04-03T09:01:25.810Z,1799.9
2023-04-03T09:03:09.492Z,1803.2
2023-04-03T09:04:53.205Z,1806.2
2023-04-03T09:06:36.863Z,1805.9
2023-04-03T09:08:20.621Z,1807.9
2023-04-03T09:10:04.317Z,1807.1
2023-04-03T09:11:48.030Z,1805.1
2023-04-03T09:13:31.693Z,1799.7
2023-04-03T09:15:15.393Z,1800.1
2023-04-03T09:16:59.138Z,1800.4
2023-04-03T09:18:43.000Z,1826.1
2023-04-03T09:20:26.504Z,1865.7
2023-04-03T09:22:10.211Z,1882.7
2023-04-03T09:23:53.939Z,1870.3
2023-04-03T09:25:37.615Z,1863.6
2023-04-03T09:27:21.300Z,1862.5
2023-04-03T09:29:05.049Z,1863.7
2023-04-03T09:30:48.745Z,1863
2023-04-03T09:32:32.342Z,1864.1
2023-04-03T09:34:16.094Z,1860.1
2023-04-03T09:35:59.772Z,1866.4
2023-04-03T09:37:43.542Z,1865.4
2023-04-03T09:39:27.147Z,1862.7
2023-04-03T09:41:10.966Z,1858.4
2023-04-03T09:42:54.664Z,1855.6
2023-04-03T09:44:38.368Z,1853.6
2023-04-03T09:46:22.073Z,1850.2
2023-04-03T09:48:05.721Z,1847
2023-04-03T09:49:49.469Z,1844.1
2023-04-03T09:51:33.162Z,1839.7
2023-04-03T09:53:16.870Z,1833.1
2023-04-03T09:55:00.576Z,1831.3
2023-04-03T09:56:44.348Z,1831.7
2023-04-03T09:58:27.996Z,1834.4
2023-04-03T10:00:11.507Z,1836.8
2023-04-03T10:01:55.353Z,1839.3
2023-04-03T10:03:38.975Z,1841.9
2023-04-03T10:05:22.800Z,1844.1
2023-04-03T10:07:06.482Z,1846.2
2023-04-03T10:08:50.250Z,1848.6
2023-04-03T10:10:47.293Z,2052.2
2023-04-03T10:12:54.432Z,2269.4
2023-04-03T10:15:01.596Z,2296.2
2023-04-03T10:17:09.070Z,2294.7
2023-04-03T10:19:15.669Z,2215.6
2023-04-03T10:21:21.902Z,2176.2
2023-04-03T10:23:28.004Z,2160.3
2023-04-03T10:25:33.875Z,2140.3
2023-04-03T10:27:40.160Z,2131.2
2023-04-03T10:29:46.181Z,2137.2
2023-04-03T10:31:52.268Z,2132.8
2023-04-03T10:33:58.330Z,2127
2023-04-03T10:36:04.400Z,2119
2023-04-03T10:38:10.472Z,2111.3
2023-04-03T10:40:16.521Z,2105.1
2023-04-03T10:42:22.132Z,2098.8
2023-04-03T10:44:27.098Z,2094.9
2023-04-03T10:46:32.089Z,2089.4
2023-04-03T10:48:37.076Z,2084.5
2023-04-03T10:50:42.153Z,2084.1
2023-04-03T10:52:47.313Z,2080.9
2023-04-03T10:54:52.380Z,2081.6
2023-04-03T10:56:57.379Z,2077.2
2023-04-03T10:59:02.452Z,2067.1
2023-04-03T11:01:07.426Z,2067.8
2023-04-03T11:03:12.648Z,2066.5
2023-04-03T11:05:17.605Z,2060.1
2023-04-03T11:07:22.718Z,2056.7
2023-04-03T11:09:27.723Z,2058.4
2023-04-03T11:11:32.771Z,2058.4
2023-04-03T11:13:37.864Z,2055.4
2023-04-03T11:15:42.841Z,2053.7
2023-04-03T11:17:48.002Z,2050.5
2023-04-03T11:19:53.032Z,2050.4
2023-04-03T11:21:58.036Z,2044.4
2023-04-03T11:24:02.923Z,2050
2023-04-03T11:26:08.141Z,2048.5
2023-04-03T11:28:13.227Z,2043.2
2023-04-03T11:30:18.078Z,2042.1
2023-04-03T11:32:23.340Z,2036.3
2023-04-03T11:34:28.361Z,2037.3
2023-04-03T11:36:33.236Z,2037.4
2023-04-03T11:38:38.481Z,2032
2023-04-03T11:40:43.497Z,2030.2
2023-04-03T11:42:48.610Z,2030.9
2023-04-03T11:44:53.597Z,2027.1
2023-04-03T11:46:58.662Z,2016.6
2023-04-03T11:49:03.722Z,2010.3
2023-04-03T11:51:08.752Z,2010
2023-04-03T11:53:09.536Z,2004
2023-04-03T11:55:06.070Z,2000.7
2023-04-03T11:56:49.566Z,1997.6
2023-04-03T11:58:33.433Z,1993.5
2023-04-03T12:00:17.173Z,1983.9
2023-04-03T12:02:00.863Z,1975.5
2023-04-03T12:03:44.433Z,1971.2
2023-04-03T12:05:28.267Z,1967.6
2023-04-03T12:07:11.980Z,1963.4
2023-04-03T12:08:55.656Z,1955.3
2023-04-03T12:10:39.341Z,1950.6
2023-04-03T12:12:23.103Z,1946.2
2023-04-03T12:14:06.780Z,1941.3
2023-04-03T12:15:50.399Z,1928.4
2023-04-03T12:17:34.135Z,1922.9
2023-04-03T12:19:17.850Z,1919.4
2023-04-03T12:21:01.529Z,1914.3
2023-04-03T12:22:45.234Z,1907.5
2023-04-03T12:24:28.891Z,1906.9
2023-04-03T12:26:12.679Z,1898.8
2023-04-03T12:27:56.332Z,1886.1
2023-04-03T12:29:40.099Z,1886.2
2023-04-03T12:31:23.832Z,1879.8
2023-04-03T12:33:07.486Z,1879.3
2023-04-03T12:34:51.113Z,1879
2023-04-03T12:36:34.928Z,1877.5
2023-04-03T12:38:18.648Z,1866.4
2023-04-03T12:40:02.293Z,1851.9
2023-04-03T12:41:45.987Z,1849.5
2023-04-03T12:43:29.779Z,1848.7
2023-04-03T12:45:13.332Z,1845
2023-04-03T12:46:57.103Z,1844.5
2023-04-03T12:48:40.644Z,1841.6
2023-04-03T12:50:24.507Z,1841.6
2023-04-03T12:52:08.096Z,1843.3
2023-04-03T12:53:51.920Z,1846.1
2023-04-03T12:55:35.444Z,1845.1
2023-04-03T12:57:19.185Z,1842.3
2023-04-03T12:59:03.047Z,1835.9
2023-04-03T13:00:46.728Z,1820.5
2023-04-03T13:02:30.414Z,1819.2
2023-04-03T13:04:14.138Z,1819
2023-04-03T13:05:57.821Z,1820.7
2023-04-03T13:07:41.590Z,1819.7
2023-04-03T13:09:25.199Z,1820.5
2023-04-03T13:11:08.880Z,1823.1
2023-04-03T13:12:52.576Z,1826
2023-04-03T13:14:36.268Z,1824
2023-04-03T13:16:19.976Z,1823.2
2023-04-03T13:18:03.591Z,1822.1
2023-04-03T13:19:47.462Z,1820.8
2023-04-03T13:21:31.171Z,1831.6
2023-04-03T13:23:14.872Z,1839.1
2023-04-03T13:24:58.699Z,1839.5
2023-04-03T13:26:42.117Z,1839.8
2023-04-03T13:28:26.020Z,1836.4
2023-04-03T13:30:09.577Z,1834
2023-04-03T13:31:53.357Z,1837.2
2023-04-03T13:33:37.005Z,1846.2
2023-04-03T13:35:20.755Z,1841.8
2023-04-03T13:37:04.408Z,1451.5
2023-04-03T13:38:48.116Z,1835.1
2023-04-03T13:40:31.872Z,1826.4
2023-04-03T13:42:15.622Z,1761.1
2023-04-03T13:45:42.849Z,1687.7
2023-04-03T13:47:26.688Z,1661.4
2023-04-03T13:49:10.427Z,1656.8
2023-04-03T13:50:54.141Z,1649.1
2023-04-03T13:52:37.823Z,1637.7
2023-04-03T13:54:21.536Z,1628.9
2023-04-03T13:56:05.241Z,1631.4
2023-04-03T13:57:48.792Z,1637.6
2023-04-03T13:59:32.679Z,1638.2
2023-04-03T14:01:16.142Z,1640.5
2023-04-03T14:03:00.049Z,1642.2
2023-04-03T14:04:43.681Z,1642.4
2023-04-03T14:06:27.423Z,1641.6
2023-04-03T14:08:11.102Z,1643.3
2023-04-03T14:09:54.666Z,1635.7
2023-04-03T14:11:38.563Z,1629.5
2023-04-03T14:13:22.240Z,1626.7
2023-04-03T14:15:05.970Z,1629.1
2023-04-03T14:16:49.473Z,1632
2023-04-03T14:18:33.403Z,1631.5
2023-04-03T14:20:17.050Z,1632.9
2023-04-03T14:22:00.761Z,1630.6
2023-04-03T14:23:44.512Z,1633.6
2023-04-03T14:25:28.126Z,1632
2023-04-03T14:27:11.793Z,1627.8
2023-04-03T14:28:55.566Z,1624.8
2023-04-03T14:30:39.250Z,1624.3
2023-04-03T14:32:23.023Z,1626.9
2023-04-03T14:34:06.782Z,1623.5
2023-04-03T14:35:50.373Z,1621.4
2023-04-03T14:37:34.081Z,1617.7
2023-04-03T14:39:17.740Z,1620.5
2023-04-03T14:41:01.436Z,1617.7
2023-04-03T14:42:45.142Z,1620.1
2023-04-03T14:44:28.859Z,1616.1
2023-04-03T14:46:12.504Z,1615.6
2023-04-03T14:47:56.319Z,1617.4
2023-04-03T14:49:39.968Z,1618.1
2023-04-03T14:51:23.637Z,1620.3
2023-04-03T14:53:07.399Z,1622.2
2023-04-03T14:54:51.110Z,1623.7
2023-04-03T14:56:34.840Z,1622.6
2023-04-03T14:58:18.393Z,1630
2023-04-03T15:00:02.016Z,1632
2023-04-03T15:03:29.600Z,1622.5
2023-04-03T15:05:13.202Z,1623.9
2023-04-03T15:06:57.015Z,1627.4
2023-04-03T15:08:40.702Z,1633.6
2023-04-03T15:10:24.378Z,1639.4
2023-04-03T15:12:08.160Z,1638
2023-04-03T15:13:51.647Z,1634.1
2023-04-03T15:15:35.357Z,1638.7
2023-04-03T15:17:19.230Z,1652.4
2023-04-03T15:19:02.954Z,1662.7
2023-04-03T15:20:46.648Z,1660.5
2023-04-03T15:22:30.339Z,1652.6
2023-04-03T15:24:14.040Z,1645.1
2023-04-03T15:25:57.654Z,1642.9
2023-04-03T15:27:41.276Z,1639.7
2023-04-03T15:29:24.974Z,1640.4
2023-04-03T15:31:08.791Z,1638.5
2023-04-03T15:32:52.484Z,1635.8
2023-04-03T15:34:36.271Z,1636.3
2023-04-03T15:36:19.939Z,1640.1
2023-04-03T15:38:03.672Z,1639.6
2023-04-03T15:39:47.381Z,1644.2
2023-04-03T15:41:31.065Z,1648.8
2023-04-03T15:43:14.739Z,1643.5
2023-04-03T15:44:58.458Z,1637.5
2023-04-03T15:46:42.050Z,1635.9
2023-04-03T15:48:25.879Z,1637.8
2023-04-03T15:50:09.573Z,1635
2023-04-03T15:51:53.110Z,1634.6
2023-04-03T15:53:36.976Z,1634.5
2023-04-03T15:55:20.595Z,1631
2023-04-03T15:57:04.358Z,1633.4
2023-04-03T15:58:47.909Z,1629.7
2023-04-03T16:02:15.480Z,1624.9
2023-04-03T16:03:59.203Z,1626.9
2023-04-03T16:05:42.888Z,1623.5
2023-04-03T16:07:26.625Z,1624.2
2023-04-03T16:09:10.296Z,1630.2
2023-04-03T16:10:54.034Z,1631.8
2023-04-03T16:12:37.748Z,1633.2
2023-04-03T16:14:21.445Z,1635.8
2023-04-03T16:16:05.007Z,1636.3
2023-04-03T16:17:48.800Z,1635.7
2023-04-03T16:19:32.623Z,1637
2023-04-03T16:21:16.270Z,1639.5
2023-04-03T16:22:59.947Z,1641.9
2023-04-03T16:24:43.672Z,1636.3
2023-04-03T16:26:27.318Z,1635.4
2023-04-03T16:28:11.040Z,1640.4
2023-04-03T16:29:54.702Z,1636.4
2023-04-03T16:31:38.438Z,1632.3
2023-04-03T16:33:22.149Z,1630.9
2023-04-03T16:35:05.777Z,1636.4
2023-04-03T16:38:33.277Z,1628.1
2023-04-03T16:40:16.951Z,1624.4
2023-04-03T16:42:00.688Z,1623.7
2023-04-03T16:43:44.384Z,1626.3
2023-04-03T16:45:28.011Z,1625.3
2023-04-03T16:47:11.843Z,1622.9
2023-04-03T16:48:55.471Z,1620
2023-04-03T16:50:39.185Z,1618.7
2023-04-03T16:52:22.885Z,1622
2023-04-03T16:54:06.585Z,1618.4
2023-04-03T16:55:50.259Z,1616
2023-04-03T16:57:33.980Z,1613
2023-04-03T16:59:17.660Z,1614.6
2023-04-03T17:01:01.371Z,1617
2023-04-03T17:02:44.916Z,1616.8
2023-04-03T17:04:28.756Z,1613.6
2023-04-03T17:06:12.478Z,1607.9
2023-04-03T17:07:56.171Z,1605.3
2023-04-03T17:09:39.938Z,1605.3
2023-04-03T17:11:23.594Z,1603.8
2023-04-03T17:13:07.336Z,1603.6
2023-04-03T17:14:51.049Z,1605
2023-04-03T17:16:34.739Z,1605.2
2023-04-03T17:18:18.360Z,1604.7
2023-04-03T17:20:01.944Z,1604.7
2023-04-03T17:21:45.788Z,1600.1
2023-04-03T17:23:29.572Z,1601.7
2023-04-03T17:25:13.212Z,1598.1
2023-04-03T17:26:56.908Z,1594.6
2023-04-03T17:28:40.446Z,1600
2023-04-03T17:30:24.322Z,1595.1
2023-04-03T17:32:07.993Z,1598.7
2023-04-03T17:33:51.707Z,1599.2
2023-04-03T17:35:35.250Z,1598.9
2023-04-03T17:37:19.119Z,1597.6
2023-04-03T17:39:02.801Z,1599.7
2023-04-03T17:40:46.508Z,1597.8
2023-04-03T17:42:30.169Z,1595.2
2023-04-03T17:44:13.944Z,1589.4
2023-04-03T17:45:57.607Z,1586
2023-04-03T17:47:41.358Z,1593.8
2023-04-03T17:49:25.023Z,1591
2023-04-03T17:51:08.754Z,1593.7
2023-04-03T17:52:52.285Z,1593.3
2023-04-03T17:54:35.987Z,1587.5
2023-04-03T17:56:19.675Z,1584.7
2023-04-03T17:58:03.399Z,1595.5
2023-04-03T17:59:47.233Z,1603.8
2023-04-03T18:01:30.970Z,1613.2
2023-04-03T18:03:14.496Z,1614.2
2023-04-03T18:04:58.209Z,1619.3
2023-04-03T18:06:42.083Z,1623.4
2023-04-03T18:08:25.772Z,1619.8
2023-04-03T18:10:09.477Z,1613.5
2023-04-03T18:11:53.214Z,1624.1
2023-04-03T18:13:36.707Z,1623.2
2023-04-03T18:15:20.583Z,1623.7
2023-04-03T18:17:04.120Z,1626.8
2023-04-03T18:18:47.983Z,1628.5
2023-04-03T18:20:31.712Z,1630.3
2023-04-03T18:22:15.416Z,1632.1
2023-04-03T18:23:59.107Z,1634.5
2023-04-03T18:25:42.834Z,1638.2
2023-04-03T18:27:26.334Z,1647.2
2023-04-03T18:29:10.177Z,1656.5
2023-04-03T18:30:53.757Z,1661.9
2023-04-03T18:32:37.598Z,1664.7
2023-04-03T18:34:21.334Z,1662.5
2023-04-03T18:36:04.981Z,1659.9
2023-04-03T18:37:48.701Z,1655
2023-04-03T18:39:32.415Z,1649
2023-04-03T18:41:16.052Z,1646.7
2023-04-03T18:42:59.842Z,1645.8
2023-04-03T18:44:43.569Z,1651.4
2023-04-03T18:46:27.286Z,1653.2
2023-04-03T18:48:10.775Z,1653.9
2023-04-03T18:49:54.596Z,1654.7
2023-04-03T18:51:38.336Z,1655.5
2023-04-03T18:53:22.018Z,1653.1
2023-04-03T18:55:05.767Z,1650.6
2023-04-03T18:56:49.414Z,1644.9
2023-04-03T18:58:33.190Z,1644.9
2023-04-03T19:00:16.736Z,1644.4
2023-04-03T19:02:00.538Z,1644.8
2023-04-03T19:03:44.089Z,1642.9
2023-04-03T19:05:27.900Z,1641.1
2023-04-03T19:07:11.650Z,1637.3
2023-04-03T19:08:55.351Z,1633.7
2023-04-03T19:10:39.037Z,1639.4
2023-04-03T19:12:22.762Z,1647.6
2023-04-03T19:14:06.439Z,1651.1
2023-04-03T19:15:50.183Z,1657.8
2023-04-03T19:17:33.884Z,1661
2023-04-03T19:19:17.406Z,1659.8
2023-04-03T19:21:01.269Z,1655.7
2023-04-03T19:22:44.847Z,1653.1
2023-04-03T19:24:28.700Z,1648.6
2023-04-03T19:26:12.394Z,1643.9
2023-04-03T19:27:55.915Z,1645.3
2023-04-03T19:29:39.777Z,1641.5
2023-04-03T19:31:23.484Z,1636.5
2023-04-03T19:33:07.207Z,1630.8
2023-04-03T19:34:50.893Z,1627.8
2023-04-03T19:36:34.593Z,1629.7
2023-04-03T19:38:18.145Z,1631.9
2023-04-03T19:40:01.862Z,1625.7
2023-04-03T19:41:45.707Z,1621.9
2023-04-03T19:43:29.445Z,1623.1
2023-04-03T19:45:13.014Z,1622.4
2023-04-03T19:46:56.806Z,1618.9
2023-04-03T19:48:40.404Z,1610
2023-04-03T19:50:24.263Z,1600.9
2023-04-03T19:52:07.935Z,1591.1
2023-04-03T19:53:51.549Z,1579.7
2023-04-03T19:55:35.311Z,1578.2
2023-04-03T19:57:19.014Z,1588.3
2023-04-03T19:59:02.573Z,1598.7
2023-04-03T20:00:46.394Z,1607.8
2023-04-03T20:02:30.169Z,1616.8
2023-04-03T20:04:13.848Z,1623.7
2023-04-03T20:05:57.535Z,1628.8
2023-04-03T20:07:41.285Z,1587.7
2023-04-03T20:09:24.864Z,693.7
2023-04-03T20:11:08.630Z,637.5
2023-04-03T20:12:52.381Z,646.9
2023-04-03T20:14:35.898Z,685.5
2023-04-03T20:16:19.772Z,865.1
2023-04-03T20:18:03.298Z,909.5
2023-04-03T20:19:47.005Z,957.6
2023-04-03T20:21:30.880Z,953.3
2023-04-03T20:23:14.552Z,949.2
2023-04-03T20:24:58.114Z,950
2023-04-03T20:26:41.829Z,955.2
2023-04-03T20:28:25.664Z,969.1
2023-04-03T20:30:09.287Z,980.4
2023-04-03T20:31:53.061Z,988.9
2023-04-03T20:33:36.619Z,983.2
2023-04-03T20:35:20.384Z,984.1
2023-04-03T20:37:04.024Z,981.4
2023-04-03T20:38:47.944Z,974.9
2023-04-03T20:40:31.705Z,969.4
2023-04-03T20:42:15.203Z,968.8
2023-04-03T20:43:58.965Z,969
2023-04-03T20:45:42.570Z,967.6
2023-04-03T20:47:26.462Z,962.7
2023-04-03T20:49:09.999Z,960.5
2023-04-03T20:50:53.648Z,961
2023-04-03T20:52:37.532Z,963.3
2023-04-03T20:54:21.250Z,964
2023-04-03T20:56:04.983Z,961
2023-04-03T20:57:48.554Z,959.9
2023-04-03T20:59:32.300Z,963.8
2023-04-03T21:01:15.853Z,965.9
2023-04-03T21:02:59.559Z,970.9
2023-04-03T21:04:43.446Z,970.9
2023-04-03T21:08:10.769Z,974.6
2023-04-03T21:09:54.359Z,972.2
2023-04-03T21:11:38.067Z,970.5
2023-04-03T21:13:21.938Z,967.5
2023-04-03T21:15:05.607Z,969.7
2023-04-03T21:16:49.296Z,969.1
2023-04-03T21:18:33.086Z,971.9
2023-04-03T21:20:16.597Z,974
2023-04-03T21:22:00.403Z,980
2023-04-03T21:23:43.985Z,978.5
2023-04-03T21:25:27.840Z,977.8
2023-04-03T21:27:11.402Z,976.1
2023-04-03T21:28:55.266Z,976.7
2023-04-03T21:30:38.896Z,977.9
2023-04-03T21:32:22.504Z,980.4
2023-04-03T21:34:06.428Z,1014.1
2023-04-03T21:35:50.096Z,1028.7
2023-04-03T21:37:33.751Z,1034.7
2023-04-03T21:39:17.325Z,1035.9
2023-04-03T21:41:01.011Z,1031.1
2023-04-03T21:42:44.869Z,1034.3
2023-04-03T21:44:28.597Z,1032.2
2023-04-03T21:46:12.117Z,1027.2
2023-04-03T21:47:55.965Z,1025.5
2023-04-03T21:49:39.726Z,1021.9
2023-04-03T21:51:23.407Z,1017
2023-04-03T21:53:07.094Z,1007.8
2023-04-03T21:54:50.628Z,1008.3
2023-04-03T21:56:34.323Z,1004.4
2023-04-03T21:58:18.179Z,999.2
2023-04-03T22:00:01.842Z,999.7
2023-04-03T22:01:45.606Z,1006.7
2023-04-03T22:03:29.339Z,1008.7
2023-04-03T22:05:12.848Z,1007.8
2023-04-03T22:06:56.554Z,1007.3
2023-04-03T22:08:40.256Z,1004.2
2023-04-03T22:10:24.099Z,1002.5
2023-04-03T22:12:07.805Z,1002.9
2023-04-03T22:13:51.366Z,999.9
2023-04-03T22:15:35.237Z,998.6
2023-04-03T22:17:18.888Z,1001.2
2023-04-03T22:19:02.474Z,1004.8
2023-04-03T22:20:46.206Z,1002